sensor_id;sensor_type;location;lat;lon;timestamp;temperature;humidity
41644;DHT22;44236;48.098;11.582;2022-08-03T00:01:19;27.70;43.50
41644;DHT22;44236;48.098;11.582;2022-08-03T00:03:45;27.70;43.60
41644;DHT22;44236;48.098;11.582;2022-08-03T00:06:11;27.70;43.70
41644;DHT22;44236;48.098;11.582;2022-08-03T00:08:36;27.60;43.70
41644;DHT22;44236;48.098;11.582;2022-08-03T00:11:02;27.60;43.80
41644;DHT22;44236;48.098;11.582;2022-08-03T00:13:29;27.60;43.80
41644;DHT22;44236;48.098;11.582;2022-08-03T00:15:54;27.50;43.80
41644;DHT22;44236;48.098;11.582;2022-08-03T00:18:20;27.50;43.80
41644;DHT22;44236;48.098;11.582;2022-08-03T00:20:46;27.50;43.80
41644;DHT22;44236;48.098;11.582;2022-08-03T00:23:11;27.50;43.80
41644;DHT22;44236;48.098;11.582;2022-08-03T00:25:38;27.40;43.80
41644;DHT22;44236;48.098;11.582;2022-08-03T00:28:04;27.40;43.80
41644;DHT22;44236;48.098;11.582;2022-08-03T00:30:31;27.40;43.90
41644;DHT22;44236;48.098;11.582;2022-08-03T00:32:57;27.40;44.00
41644;DHT22;44236;48.098;11.582;2022-08-03T00:35:23;27.30;43.90
41644;DHT22;44236;48.098;11.582;2022-08-03T00:37:50;27.30;44.00
41644;DHT22;44236;48.098;11.582;2022-08-03T00:40:16;27.30;44.10
41644;DHT22;44236;48.098;11.582;2022-08-03T00:43:02;27.20;44.10
41644;DHT22;44236;48.098;11.582;2022-08-03T00:45:36;27.20;44.20
41644;DHT22;44236;48.098;11.582;2022-08-03T00:48:03;27.20;44.20
41644;DHT22;44236;48.098;11.582;2022-08-03T00:50:33;27.20;44.30
41644;DHT22;44236;48.098;11.582;2022-08-03T00:53:00;27.10;44.40
41644;DHT22;44236;48.098;11.582;2022-08-03T00:55:26;27.10;44.50
41644;DHT22;44236;48.098;11.582;2022-08-03T00:57:52;27.00;44.50
41644;DHT22;44236;48.098;11.582;2022-08-03T01:00:20;27.00;44.50
41644;DHT22;44236;48.098;11.582;2022-08-03T01:02:46;27.00;44.50
41644;DHT22;44236;48.098;11.582;2022-08-03T01:05:12;27.00;44.60
41644;DHT22;44236;48.098;11.582;2022-08-03T01:16:43;26.80;44.80
41644;DHT22;44236;48.098;11.582;2022-08-03T01:27:42;26.70;44.80
41644;DHT22;44236;48.098;11.582;2022-08-03T01:30:11;26.70;44.80
41644;DHT22;44236;48.098;11.582;2022-08-03T01:35:31;26.70;44.90
41644;DHT22;44236;48.098;11.582;2022-08-03T01:38:02;26.60;44.90
41644;DHT22;44236;48.098;11.582;2022-08-03T01:40:29;26.60;44.90
41644;DHT22;44236;48.098;11.582;2022-08-03T01:42:59;26.60;45.00
41644;DHT22;44236;48.098;11.582;2022-08-03T01:45:26;26.50;44.90
41644;DHT22;44236;48.098;11.582;2022-08-03T01:47:53;26.50;45.00
41644;DHT22;44236;48.098;11.582;2022-08-03T01:50:25;26.50;45.00
41644;DHT22;44236;48.098;11.582;2022-08-03T01:52:53;26.40;45.00
41644;DHT22;44236;48.098;11.582;2022-08-03T01:55:19;26.40;45.00
41644;DHT22;44236;48.098;11.582;2022-08-03T01:57:48;26.40;45.00
41644;DHT22;44236;48.098;11.582;2022-08-03T02:00:15;26.40;45.00
41644;DHT22;44236;48.098;11.582;2022-08-03T02:02:42;26.30;44.90
41644;DHT22;44236;48.098;11.582;2022-08-03T02:05:10;26.30;44.90
41644;DHT22;44236;48.098;11.582;2022-08-03T02:07:39;26.30;44.90
41644;DHT22;44236;48.098;11.582;2022-08-03T02:10:06;26.30;44.90
41644;DHT22;44236;48.098;11.582;2022-08-03T02:12:33;26.30;44.90
41644;DHT22;44236;48.098;11.582;2022-08-03T02:15:00;26.20;44.90
41644;DHT22;44236;48.098;11.582;2022-08-03T02:17:27;26.20;44.90
41644;DHT22;44236;48.098;11.582;2022-08-03T02:19:54;26.20;45.00
41644;DHT22;44236;48.098;11.582;2022-08-03T02:22:21;26.20;45.00
41644;DHT22;44236;48.098;11.582;2022-08-03T02:24:48;26.10;44.90
41644;DHT22;44236;48.098;11.582;2022-08-03T02:27:20;26.10;45.00
41644;DHT22;44236;48.098;11.582;2022-08-03T02:29:47;26.00;44.90
41644;DHT22;44236;48.098;11.582;2022-08-03T02:32:19;26.00;44.90
41644;DHT22;44236;48.098;11.582;2022-08-03T02:34:48;26.00;45.00
41644;DHT22;44236;48.098;11.582;2022-08-03T02:37:17;26.00;45.10
41644;DHT22;44236;48.098;11.582;2022-08-03T02:39:44;26.00;45.10
41644;DHT22;44236;48.098;11.582;2022-08-03T02:42:13;25.90;45.20
41644;DHT22;44236;48.098;11.582;2022-08-03T02:44:41;25.90;45.10
41644;DHT22;44236;48.098;11.582;2022-08-03T02:47:12;25.90;45.20
41644;DHT22;44236;48.098;11.582;2022-08-03T02:49:41;25.80;45.20
41644;DHT22;44236;48.098;11.582;2022-08-03T02:52:09;25.80;45.20
41644;DHT22;44236;48.098;11.582;2022-08-03T02:54:37;25.80;45.20
41644;DHT22;44236;48.098;11.582;2022-08-03T02:57:03;25.80;45.20
41644;DHT22;44236;48.098;11.582;2022-08-03T02:59:31;25.80;45.20
41644;DHT22;44236;48.098;11.582;2022-08-03T03:01:59;25.70;45.10
41644;DHT22;44236;48.098;11.582;2022-08-03T03:04:27;25.70;45.20
41644;DHT22;44236;48.098;11.582;2022-08-03T03:06:54;25.70;45.20
41644;DHT22;44236;48.098;11.582;2022-08-03T03:09:21;25.70;45.30
41644;DHT22;44236;48.098;11.582;2022-08-03T03:11:48;25.70;45.30
41644;DHT22;44236;48.098;11.582;2022-08-03T03:14:15;25.60;45.30
41644;DHT22;44236;48.098;11.582;2022-08-03T03:16:43;25.60;45.30
41644;DHT22;44236;48.098;11.582;2022-08-03T03:19:13;25.60;45.30
41644;DHT22;44236;48.098;11.582;2022-08-03T03:21:39;25.60;45.30
41644;DHT22;44236;48.098;11.582;2022-08-03T03:24:07;25.60;45.30
41644;DHT22;44236;48.098;11.582;2022-08-03T03:26:34;25.60;45.30
41644;DHT22;44236;48.098;11.582;2022-08-03T03:29:01;25.60;45.30
41644;DHT22;44236;48.098;11.582;2022-08-03T03:31:27;25.60;45.30
41644;DHT22;44236;48.098;11.582;2022-08-03T03:33:55;25.50;45.30
41644;DHT22;44236;48.098;11.582;2022-08-03T03:36:21;25.50;45.30
41644;DHT22;44236;48.098;11.582;2022-08-03T03:38:47;25.50;45.30
41644;DHT22;44236;48.098;11.582;2022-08-03T03:41:13;25.50;45.40
41644;DHT22;44236;48.098;11.582;2022-08-03T03:43:39;25.50;45.40
41644;DHT22;44236;48.098;11.582;2022-08-03T03:46:05;25.40;45.70
41644;DHT22;44236;48.098;11.582;2022-08-03T03:48:31;25.50;45.40
41644;DHT22;44236;48.098;11.582;2022-08-03T03:50:56;25.40;45.40
41644;DHT22;44236;48.098;11.582;2022-08-03T03:53:23;25.40;45.40
41644;DHT22;44236;48.098;11.582;2022-08-03T03:55:51;25.40;45.40
41644;DHT22;44236;48.098;11.582;2022-08-03T03:58:17;25.40;45.40
41644;DHT22;44236;48.098;11.582;2022-08-03T04:00:43;25.40;45.40
41644;DHT22;44236;48.098;11.582;2022-08-03T04:03:10;25.30;45.40
41644;DHT22;44236;48.098;11.582;2022-08-03T04:05:36;25.30;45.40
41644;DHT22;44236;48.098;11.582;2022-08-03T04:08:21;25.30;45.50
41644;DHT22;44236;48.098;11.582;2022-08-03T04:11:13;25.30;45.50
41644;DHT22;44236;48.098;11.582;2022-08-03T04:14:11;25.30;45.50
41644;DHT22;44236;48.098;11.582;2022-08-03T04:16:37;25.30;45.70
41644;DHT22;44236;48.098;11.582;2022-08-03T04:19:08;25.20;45.70
41644;DHT22;44236;48.098;11.582;2022-08-03T04:21:37;25.20;45.90
41644;DHT22;44236;48.098;11.582;2022-08-03T04:24:07;25.20;46.00
41644;DHT22;44236;48.098;11.582;2022-08-03T04:26:36;25.20;46.50
41644;DHT22;44236;48.098;11.582;2022-08-03T04:29:03;25.20;46.90
41644;DHT22;44236;48.098;11.582;2022-08-03T04:31:30;25.20;46.90
41644;DHT22;44236;48.098;11.582;2022-08-03T04:33:57;25.20;47.10
41644;DHT22;44236;48.098;11.582;2022-08-03T04:36:25;25.20;47.50
41644;DHT22;44236;48.098;11.582;2022-08-03T04:38:59;25.20;47.10
41644;DHT22;44236;48.098;11.582;2022-08-03T04:41:27;25.20;47.10
41644;DHT22;44236;48.098;11.582;2022-08-03T04:43:55;25.20;47.10
41644;DHT22;44236;48.098;11.582;2022-08-03T04:46:22;25.20;47.10
41644;DHT22;44236;48.098;11.582;2022-08-03T04:48:50;25.20;47.10
41644;DHT22;44236;48.098;11.582;2022-08-03T04:51:16;25.20;47.00
41644;DHT22;44236;48.098;11.582;2022-08-03T04:53:42;25.30;47.00
41644;DHT22;44236;48.098;11.582;2022-08-03T04:56:08;25.30;46.80
41644;DHT22;44236;48.098;11.582;2022-08-03T04:58:34;25.40;46.90
41644;DHT22;44236;48.098;11.582;2022-08-03T05:01:00;25.40;46.80
41644;DHT22;44236;48.098;11.582;2022-08-03T05:03:26;25.50;46.80
41644;DHT22;44236;48.098;11.582;2022-08-03T05:05:52;25.50;46.80
41644;DHT22;44236;48.098;11.582;2022-08-03T05:08:17;25.60;46.70
41644;DHT22;44236;48.098;11.582;2022-08-03T05:10:43;25.60;46.40
41644;DHT22;44236;48.098;11.582;2022-08-03T05:13:09;25.70;46.40
41644;DHT22;44236;48.098;11.582;2022-08-03T05:15:37;25.70;46.40
41644;DHT22;44236;48.098;11.582;2022-08-03T05:18:03;25.70;46.40
41644;DHT22;44236;48.098;11.582;2022-08-03T05:20:28;25.70;46.40
41644;DHT22;44236;48.098;11.582;2022-08-03T05:22:54;25.70;46.50
41644;DHT22;44236;48.098;11.582;2022-08-03T05:25:20;25.80;46.40
41644;DHT22;44236;48.098;11.582;2022-08-03T05:27:45;25.90;46.20
41644;DHT22;44236;48.098;11.582;2022-08-03T05:30:11;25.90;46.10
41644;DHT22;44236;48.098;11.582;2022-08-03T05:32:37;26.00;45.90
41644;DHT22;44236;48.098;11.582;2022-08-03T05:35:03;26.10;45.80
41644;DHT22;44236;48.098;11.582;2022-08-03T05:37:28;26.20;45.60
41644;DHT22;44236;48.098;11.582;2022-08-03T05:39:54;26.30;45.40
41644;DHT22;44236;48.098;11.582;2022-08-03T05:42:19;26.40;45.30
41644;DHT22;44236;48.098;11.582;2022-08-03T05:44:45;26.60;45.20
41644;DHT22;44236;48.098;11.582;2022-08-03T05:47:11;26.70;45.10
41644;DHT22;44236;48.098;11.582;2022-08-03T05:49:36;26.70;44.90
41644;DHT22;44236;48.098;11.582;2022-08-03T05:52:02;26.80;44.80
41644;DHT22;44236;48.098;11.582;2022-08-03T05:54:28;26.90;44.80
41644;DHT22;44236;48.098;11.582;2022-08-03T05:56:53;27.00;44.70
41644;DHT22;44236;48.098;11.582;2022-08-03T05:59:19;27.10;44.60
41644;DHT22;44236;48.098;11.582;2022-08-03T06:01:46;27.20;44.50
41644;DHT22;44236;48.098;11.582;2022-08-03T06:04:11;27.20;44.40
41644;DHT22;44236;48.098;11.582;2022-08-03T06:06:38;27.30;44.30
41644;DHT22;44236;48.098;11.582;2022-08-03T06:09:04;27.30;44.30
41644;DHT22;44236;48.098;11.582;2022-08-03T06:11:29;27.30;44.20
41644;DHT22;44236;48.098;11.582;2022-08-03T06:13:55;27.40;44.20
41644;DHT22;44236;48.098;11.582;2022-08-03T06:16:20;27.40;44.10
41644;DHT22;44236;48.098;11.582;2022-08-03T06:18:46;27.40;44.10
41644;DHT22;44236;48.098;11.582;2022-08-03T06:21:12;27.50;44.10
41644;DHT22;44236;48.098;11.582;2022-08-03T06:23:37;27.50;44.10
41644;DHT22;44236;48.098;11.582;2022-08-03T06:26:03;27.50;44.10
41644;DHT22;44236;48.098;11.582;2022-08-03T06:28:29;27.50;44.10
41644;DHT22;44236;48.098;11.582;2022-08-03T06:30:54;27.50;44.10
41644;DHT22;44236;48.098;11.582;2022-08-03T06:33:20;27.50;44.10
41644;DHT22;44236;48.098;11.582;2022-08-03T06:35:46;27.50;44.20
41644;DHT22;44236;48.098;11.582;2022-08-03T06:38:11;27.50;44.10
41644;DHT22;44236;48.098;11.582;2022-08-03T06:40:37;27.50;44.20
41644;DHT22;44236;48.098;11.582;2022-08-03T06:43:06;27.50;44.30
41644;DHT22;44236;48.098;11.582;2022-08-03T06:45:33;27.50;44.30
41644;DHT22;44236;48.098;11.582;2022-08-03T06:48:05;27.50;44.40
41644;DHT22;44236;48.098;11.582;2022-08-03T06:50:32;27.50;44.40
41644;DHT22;44236;48.098;11.582;2022-08-03T06:52:58;27.50;44.40
41644;DHT22;44236;48.098;11.582;2022-08-03T06:55:25;27.50;44.40
41644;DHT22;44236;48.098;11.582;2022-08-03T06:57:51;27.40;44.50
41644;DHT22;44236;48.098;11.582;2022-08-03T07:00:17;27.50;44.60
41644;DHT22;44236;48.098;11.582;2022-08-03T07:02:43;27.40;44.50
41644;DHT22;44236;48.098;11.582;2022-08-03T07:05:09;27.40;44.60
41644;DHT22;44236;48.098;11.582;2022-08-03T07:07:35;27.40;44.70
41644;DHT22;44236;48.098;11.582;2022-08-03T07:10:01;27.40;44.80
41644;DHT22;44236;48.098;11.582;2022-08-03T07:12:28;27.40;44.90
41644;DHT22;44236;48.098;11.582;2022-08-03T07:14:55;27.30;44.90
41644;DHT22;44236;48.098;11.582;2022-08-03T07:17:21;27.30;45.00
41644;DHT22;44236;48.098;11.582;2022-08-03T07:19:47;27.30;45.00
41644;DHT22;44236;48.098;11.582;2022-08-03T07:22:13;27.30;45.10
41644;DHT22;44236;48.098;11.582;2022-08-03T07:24:38;27.30;45.20
41644;DHT22;44236;48.098;11.582;2022-08-03T07:27:06;27.30;45.40
41644;DHT22;44236;48.098;11.582;2022-08-03T07:29:33;27.30;45.60
41644;DHT22;44236;48.098;11.582;2022-08-03T07:31:59;27.30;45.70
41644;DHT22;44236;48.098;11.582;2022-08-03T07:34:25;27.20;45.70
41644;DHT22;44236;48.098;11.582;2022-08-03T07:36:50;27.20;45.90
41644;DHT22;44236;48.098;11.582;2022-08-03T07:39:16;27.20;46.10
41644;DHT22;44236;48.098;11.582;2022-08-03T07:41:41;27.20;46.20
41644;DHT22;44236;48.098;11.582;2022-08-03T07:44:07;27.20;46.30
41644;DHT22;44236;48.098;11.582;2022-08-03T07:46:32;27.10;46.30
41644;DHT22;44236;48.098;11.582;2022-08-03T07:48:58;27.20;46.40
41644;DHT22;44236;48.098;11.582;2022-08-03T07:51:24;27.10;46.40
41644;DHT22;44236;48.098;11.582;2022-08-03T07:53:51;27.10;46.50
41644;DHT22;44236;48.098;11.582;2022-08-03T07:56:16;27.10;46.50
41644;DHT22;44236;48.098;11.582;2022-08-03T07:58:42;27.10;46.50
41644;DHT22;44236;48.098;11.582;2022-08-03T08:01:08;27.20;46.60
41644;DHT22;44236;48.098;11.582;2022-08-03T08:03:33;27.20;46.60
41644;DHT22;44236;48.098;11.582;2022-08-03T08:05:59;27.20;46.60
41644;DHT22;44236;48.098;11.582;2022-08-03T08:08:24;27.30;46.60
41644;DHT22;44236;48.098;11.582;2022-08-03T08:10:50;27.30;46.60
41644;DHT22;44236;48.098;11.582;2022-08-03T08:13:16;27.30;46.60
41644;DHT22;44236;48.098;11.582;2022-08-03T08:15:41;27.30;46.50
41644;DHT22;44236;48.098;11.582;2022-08-03T08:18:07;27.40;46.30
41644;DHT22;44236;48.098;11.582;2022-08-03T08:20:34;27.40;45.80
41644;DHT22;44236;48.098;11.582;2022-08-03T08:23:03;27.40;45.70
41644;DHT22;44236;48.098;11.582;2022-08-03T08:25:30;27.50;45.70
41644;DHT22;44236;48.098;11.582;2022-08-03T08:27:57;27.50;45.60
41644;DHT22;44236;48.098;11.582;2022-08-03T08:30:26;27.60;45.70
41644;DHT22;44236;48.098;11.582;2022-08-03T08:32:51;27.60;45.20
41644;DHT22;44236;48.098;11.582;2022-08-03T08:35:17;27.60;45.10
41644;DHT22;44236;48.098;11.582;2022-08-03T08:37:44;27.70;45.10
41644;DHT22;44236;48.098;11.582;2022-08-03T08:40:11;27.70;45.20
41644;DHT22;44236;48.098;11.582;2022-08-03T08:42:42;27.70;45.40
41644;DHT22;44236;48.098;11.582;2022-08-03T08:45:08;27.80;45.50
41644;DHT22;44236;48.098;11.582;2022-08-03T08:47:39;27.80;45.40
41644;DHT22;44236;48.098;11.582;2022-08-03T08:50:07;27.80;45.30
41644;DHT22;44236;48.098;11.582;2022-08-03T08:52:34;27.80;45.40
41644;DHT22;44236;48.098;11.582;2022-08-03T08:55:02;27.90;45.50
41644;DHT22;44236;48.098;11.582;2022-08-03T08:57:31;27.90;45.40
41644;DHT22;44236;48.098;11.582;2022-08-03T08:59:58;27.90;45.50
41644;DHT22;44236;48.098;11.582;2022-08-03T09:02:24;27.90;45.50
41644;DHT22;44236;48.098;11.582;2022-08-03T09:04:50;28.00;45.50
41644;DHT22;44236;48.098;11.582;2022-08-03T09:07:16;28.00;45.40
41644;DHT22;44236;48.098;11.582;2022-08-03T09:09:42;28.00;45.20
41644;DHT22;44236;48.098;11.582;2022-08-03T09:12:08;28.10;45.10
41644;DHT22;44236;48.098;11.582;2022-08-03T09:14:34;28.10;44.90
41644;DHT22;44236;48.098;11.582;2022-08-03T09:17:01;28.20;44.90
41644;DHT22;44236;48.098;11.582;2022-08-03T09:19:28;28.20;44.80
41644;DHT22;44236;48.098;11.582;2022-08-03T09:22:26;28.20;44.60
41644;DHT22;44236;48.098;11.582;2022-08-03T09:24:56;28.30;45.60
41644;DHT22;44236;48.098;11.582;2022-08-03T09:27:22;28.30;46.10
41644;DHT22;44236;48.098;11.582;2022-08-03T09:29:50;28.40;46.50
41644;DHT22;44236;48.098;11.582;2022-08-03T09:32:19;28.40;47.40
41644;DHT22;44236;48.098;11.582;2022-08-03T09:34:51;28.40;47.10
41644;DHT22;44236;48.098;11.582;2022-08-03T09:37:19;28.50;47.80
41644;DHT22;44236;48.098;11.582;2022-08-03T09:39:46;28.50;48.70
41644;DHT22;44236;48.098;11.582;2022-08-03T09:42:17;28.60;48.60
41644;DHT22;44236;48.098;11.582;2022-08-03T09:44:47;28.60;48.40
41644;DHT22;44236;48.098;11.582;2022-08-03T09:47:15;28.60;48.50
41644;DHT22;44236;48.098;11.582;2022-08-03T09:49:42;28.60;48.00
41644;DHT22;44236;48.098;11.582;2022-08-03T09:52:20;28.70;47.20
41644;DHT22;44236;48.098;11.582;2022-08-03T09:54:54;28.70;45.70
41644;DHT22;44236;48.098;11.582;2022-08-03T09:57:24;28.70;45.10
41644;DHT22;44236;48.098;11.582;2022-08-03T09:59:51;28.80;45.00
41644;DHT22;44236;48.098;11.582;2022-08-03T10:02:25;28.80;44.40
41644;DHT22;44236;48.098;11.582;2022-08-03T10:04:52;28.80;44.40
41644;DHT22;44236;48.098;11.582;2022-08-03T10:07:22;28.80;44.20
41644;DHT22;44236;48.098;11.582;2022-08-03T10:09:59;28.80;44.30
41644;DHT22;44236;48.098;11.582;2022-08-03T10:12:26;28.90;43.80
41644;DHT22;44236;48.098;11.582;2022-08-03T10:14:52;28.90;43.90
41644;DHT22;44236;48.098;11.582;2022-08-03T10:17:19;28.90;44.60
41644;DHT22;44236;48.098;11.582;2022-08-03T10:19:45;28.90;45.00
41644;DHT22;44236;48.098;11.582;2022-08-03T10:22:29;29.00;44.80
41644;DHT22;44236;48.098;11.582;2022-08-03T10:25:03;28.90;44.20
41644;DHT22;44236;48.098;11.582;2022-08-03T10:27:38;29.00;43.90
41644;DHT22;44236;48.098;11.582;2022-08-03T10:30:09;29.00;44.00
41644;DHT22;44236;48.098;11.582;2022-08-03T10:35:19;29.10;43.90
41644;DHT22;44236;48.098;11.582;2022-08-03T10:37:57;29.10;43.90
41644;DHT22;44236;48.098;11.582;2022-08-03T10:40:23;29.10;44.00
41644;DHT22;44236;48.098;11.582;2022-08-03T10:42:54;29.10;44.00
41644;DHT22;44236;48.098;11.582;2022-08-03T10:45:26;29.10;43.90
41644;DHT22;44236;48.098;11.582;2022-08-03T10:47:54;29.10;43.50
41644;DHT22;44236;48.098;11.582;2022-08-03T10:50:23;29.10;43.50
41644;DHT22;44236;48.098;11.582;2022-08-03T10:53:15;29.10;43.60
41644;DHT22;44236;48.098;11.582;2022-08-03T10:55:57;29.10;43.80
41644;DHT22;44236;48.098;11.582;2022-08-03T11:01:10;29.20;44.00
41644;DHT22;44236;48.098;11.582;2022-08-03T11:06:21;29.10;44.00
41644;DHT22;44236;48.098;11.582;2022-08-03T11:08:48;29.10;44.00
41644;DHT22;44236;48.098;11.582;2022-08-03T11:14:02;29.10;43.60
41644;DHT22;44236;48.098;11.582;2022-08-03T11:16:30;29.20;43.70
41644;DHT22;44236;48.098;11.582;2022-08-03T11:18:57;29.10;43.80
41644;DHT22;44236;48.098;11.582;2022-08-03T11:27:31;29.10;43.50
41644;DHT22;44236;48.098;11.582;2022-08-03T11:40:43;29.10;44.70
41644;DHT22;44236;48.098;11.582;2022-08-03T11:48:37;29.10;46.00
41644;DHT22;44236;48.098;11.582;2022-08-03T11:51:06;29.10;45.90
41644;DHT22;44236;48.098;11.582;2022-08-03T11:53:33;29.10;45.60
41644;DHT22;44236;48.098;11.582;2022-08-03T11:56:00;29.10;45.70
41644;DHT22;44236;48.098;11.582;2022-08-03T11:58:26;29.10;45.90
41644;DHT22;44236;48.098;11.582;2022-08-03T12:01:01;29.10;45.80
41644;DHT22;44236;48.098;11.582;2022-08-03T12:03:31;29.10;45.70
41644;DHT22;44236;48.098;11.582;2022-08-03T12:05:57;29.10;45.80
41644;DHT22;44236;48.098;11.582;2022-08-03T12:10:52;29.10;45.40
41644;DHT22;44236;48.098;11.582;2022-08-03T12:13:19;29.20;45.30
41644;DHT22;44236;48.098;11.582;2022-08-03T12:15:56;29.20;45.10
41644;DHT22;44236;48.098;11.582;2022-08-03T12:18:22;29.30;45.00
41644;DHT22;44236;48.098;11.582;2022-08-03T12:20:50;29.30;44.90
41644;DHT22;44236;48.098;11.582;2022-08-03T12:23:18;29.30;44.80
41644;DHT22;44236;48.098;11.582;2022-08-03T12:25:46;29.40;44.60
41644;DHT22;44236;48.098;11.582;2022-08-03T12:30:47;29.40;44.30
41644;DHT22;44236;48.098;11.582;2022-08-03T12:33:24;29.50;44.10
41644;DHT22;44236;48.098;11.582;2022-08-03T12:36:10;29.50;44.00
41644;DHT22;44236;48.098;11.582;2022-08-03T12:38:37;29.50;43.90
41644;DHT22;44236;48.098;11.582;2022-08-03T12:41:05;29.50;43.70
41644;DHT22;44236;48.098;11.582;2022-08-03T12:43:31;29.60;43.60
41644;DHT22;44236;48.098;11.582;2022-08-03T12:46:13;29.60;43.50
41644;DHT22;44236;48.098;11.582;2022-08-03T12:51:33;29.70;43.20
41644;DHT22;44236;48.098;11.582;2022-08-03T12:54:00;29.70;42.90
41644;DHT22;44236;48.098;11.582;2022-08-03T12:56:26;29.80;42.70
41644;DHT22;44236;48.098;11.582;2022-08-03T12:58:52;29.70;42.40
41644;DHT22;44236;48.098;11.582;2022-08-03T13:01:18;29.80;42.50
41644;DHT22;44236;48.098;11.582;2022-08-03T13:03:49;29.80;42.40
41644;DHT22;44236;48.098;11.582;2022-08-03T13:06:21;29.80;42.10
41644;DHT22;44236;48.098;11.582;2022-08-03T13:08:47;29.80;42.00
41644;DHT22;44236;48.098;11.582;2022-08-03T13:11:23;29.80;41.80
41644;DHT22;44236;48.098;11.582;2022-08-03T13:13:50;29.80;41.80
41644;DHT22;44236;48.098;11.582;2022-08-03T13:16:16;29.90;41.70
41644;DHT22;44236;48.098;11.582;2022-08-03T13:18:42;29.90;41.90
41644;DHT22;44236;48.098;11.582;2022-08-03T13:21:12;29.90;42.00
41644;DHT22;44236;48.098;11.582;2022-08-03T13:23:37;29.90;41.90
41644;DHT22;44236;48.098;11.582;2022-08-03T13:26:03;30.00;41.70
41644;DHT22;44236;48.098;11.582;2022-08-03T13:28:28;30.00;41.50
41644;DHT22;44236;48.098;11.582;2022-08-03T13:30:54;30.00;41.60
41644;DHT22;44236;48.098;11.582;2022-08-03T13:33:20;30.10;41.40
41644;DHT22;44236;48.098;11.582;2022-08-03T13:35:45;30.10;41.20
41644;DHT22;44236;48.098;11.582;2022-08-03T13:38:11;30.20;41.30
41644;DHT22;44236;48.098;11.582;2022-08-03T13:40:37;30.20;40.90
41644;DHT22;44236;48.098;11.582;2022-08-03T13:43:02;30.20;40.90
41644;DHT22;44236;48.098;11.582;2022-08-03T13:45:28;30.20;41.00
41644;DHT22;44236;48.098;11.582;2022-08-03T13:47:54;30.30;40.90
41644;DHT22;44236;48.098;11.582;2022-08-03T13:50:20;30.30;40.50
41644;DHT22;44236;48.098;11.582;2022-08-03T13:52:45;30.30;40.70
41644;DHT22;44236;48.098;11.582;2022-08-03T13:55:11;30.30;40.70
41644;DHT22;44236;48.098;11.582;2022-08-03T13:57:37;30.40;40.60
41644;DHT22;44236;48.098;11.582;2022-08-03T14:00:05;30.40;40.50
41644;DHT22;44236;48.098;11.582;2022-08-03T14:02:31;30.50;40.60
41644;DHT22;44236;48.098;11.582;2022-08-03T14:04:57;30.50;40.50
41644;DHT22;44236;48.098;11.582;2022-08-03T14:07:22;30.50;40.30
41644;DHT22;44236;48.098;11.582;2022-08-03T14:09:48;30.60;40.60
41644;DHT22;44236;48.098;11.582;2022-08-03T14:12:13;30.60;40.40
41644;DHT22;44236;48.098;11.582;2022-08-03T14:14:39;30.60;40.10
41644;DHT22;44236;48.098;11.582;2022-08-03T14:17:05;30.60;40.40
41644;DHT22;44236;48.098;11.582;2022-08-03T14:19:30;30.60;40.40
41644;DHT22;44236;48.098;11.582;2022-08-03T14:21:57;30.70;40.40
41644;DHT22;44236;48.098;11.582;2022-08-03T14:24:22;30.70;40.40
41644;DHT22;44236;48.098;11.582;2022-08-03T14:26:48;30.80;40.40
41644;DHT22;44236;48.098;11.582;2022-08-03T14:29:14;30.80;40.50
41644;DHT22;44236;48.098;11.582;2022-08-03T14:31:39;30.80;40.30
41644;DHT22;44236;48.098;11.582;2022-08-03T14:34:05;30.80;40.20
41644;DHT22;44236;48.098;11.582;2022-08-03T14:36:30;30.80;40.00
41644;DHT22;44236;48.098;11.582;2022-08-03T14:38:56;30.90;40.00
41644;DHT22;44236;48.098;11.582;2022-08-03T14:41:22;30.90;39.80
41644;DHT22;44236;48.098;11.582;2022-08-03T14:43:47;30.90;39.70
41644;DHT22;44236;48.098;11.582;2022-08-03T14:46:13;30.90;39.30
41644;DHT22;44236;48.098;11.582;2022-08-03T14:48:39;30.90;39.80
41644;DHT22;44236;48.098;11.582;2022-08-03T14:51:05;30.90;40.00
41644;DHT22;44236;48.098;11.582;2022-08-03T14:53:30;31.00;40.20
41644;DHT22;44236;48.098;11.582;2022-08-03T14:55:56;30.90;40.30
41644;DHT22;44236;48.098;11.582;2022-08-03T14:58:22;31.00;40.60
41644;DHT22;44236;48.098;11.582;2022-08-03T15:00:52;30.90;41.10
41644;DHT22;44236;48.098;11.582;2022-08-03T15:03:19;31.00;40.90
41644;DHT22;44236;48.098;11.582;2022-08-03T15:05:48;31.00;40.70
41644;DHT22;44236;48.098;11.582;2022-08-03T15:08:13;31.00;40.80
41644;DHT22;44236;48.098;11.582;2022-08-03T15:10:39;31.00;41.20
41644;DHT22;44236;48.098;11.582;2022-08-03T15:13:05;31.00;41.00
41644;DHT22;44236;48.098;11.582;2022-08-03T15:15:30;31.00;41.10
41644;DHT22;44236;48.098;11.582;2022-08-03T15:17:56;31.00;41.00
41644;DHT22;44236;48.098;11.582;2022-08-03T15:20:21;31.00;41.00
41644;DHT22;44236;48.098;11.582;2022-08-03T15:22:47;31.00;41.10
41644;DHT22;44236;48.098;11.582;2022-08-03T15:25:13;31.00;41.00
41644;DHT22;44236;48.098;11.582;2022-08-03T15:27:38;31.00;41.10
41644;DHT22;44236;48.098;11.582;2022-08-03T15:30:04;30.90;41.10
41644;DHT22;44236;48.098;11.582;2022-08-03T15:32:32;31.00;41.30
41644;DHT22;44236;48.098;11.582;2022-08-03T15:34:58;31.00;41.30
41644;DHT22;44236;48.098;11.582;2022-08-03T15:37:23;31.00;41.30
41644;DHT22;44236;48.098;11.582;2022-08-03T15:39:50;31.00;41.50
41644;DHT22;44236;48.098;11.582;2022-08-03T15:42:15;30.90;41.60
41644;DHT22;44236;48.098;11.582;2022-08-03T15:44:41;30.90;41.80
41644;DHT22;44236;48.098;11.582;2022-08-03T15:47:06;30.90;41.70
41644;DHT22;44236;48.098;11.582;2022-08-03T15:49:32;30.90;41.50
41644;DHT22;44236;48.098;11.582;2022-08-03T15:51:58;30.90;41.80
41644;DHT22;44236;48.098;11.582;2022-08-03T15:54:25;30.90;41.40
41644;DHT22;44236;48.098;11.582;2022-08-03T15:56:51;30.90;41.60
41644;DHT22;44236;48.098;11.582;2022-08-03T15:59:17;30.90;41.70
41644;DHT22;44236;48.098;11.582;2022-08-03T16:01:44;30.90;41.80
41644;DHT22;44236;48.098;11.582;2022-08-03T16:04:10;30.90;41.90
41644;DHT22;44236;48.098;11.582;2022-08-03T16:06:36;30.90;42.10
41644;DHT22;44236;48.098;11.582;2022-08-03T16:09:05;30.90;42.10
41644;DHT22;44236;48.098;11.582;2022-08-03T16:11:32;30.90;42.50
41644;DHT22;44236;48.098;11.582;2022-08-03T16:13:58;30.90;42.50
41644;DHT22;44236;48.098;11.582;2022-08-03T16:16:23;30.90;43.00
41644;DHT22;44236;48.098;11.582;2022-08-03T16:18:50;30.90;43.10